Terminal Aerodrome Forecast
Issued by NWS

Home | Current Version | Previous Version | Text Only | Print | Product List | Glossary On
Versions: 1 2 3 4 5 6 7 8 9 10 11 12 13 14 15
000
FTUS42 TJSJ 251135
TAFJMZ
TAF
TJMZ 251135Z 2512/2612 07005KT P6SM FEW040
     FM251530 29010KT P6SM VCSH SCT030
     FM251700 26010KT P6SM VCTS SCT025 BKN030CB OVC050
     FM252100 07007KT P6SM SCT025 SCT045
      AMD NOT SKED=

USA.gov is the U.S. government's official web portal to all federal, state and local government web resources and services.